createdAt,value
2018-03-02T00:01:57.196Z,10.63
2018-03-02T00:04:27.416Z,11.65
2018-03-02T00:06:57.289Z,10.90
2018-03-02T00:09:26.915Z,8.88
2018-03-02T00:11:58.601Z,13.85
2018-03-02T00:14:28.751Z,5.35
2018-03-02T00:17:00.270Z,6.15
2018-03-02T00:19:31.224Z,16.45
2018-03-02T00:22:01.371Z,10.00
2018-03-02T00:24:32.538Z,7.22
2018-03-02T00:27:02.674Z,14.07
2018-03-02T00:29:33.941Z,11.38
2018-03-02T00:32:03.564Z,12.82
2018-03-02T00:34:33.092Z,7.87
2018-03-02T00:37:03.650Z,6.18
2018-03-02T00:39:34.506Z,8.48
2018-03-02T00:42:04.605Z,10.82
2018-03-02T00:44:34.895Z,8.32
2018-03-02T00:47:05.990Z,14.73
2018-03-02T00:49:36.633Z,15.88
2018-03-02T00:52:07.155Z,8.77
2018-03-02T00:54:39.101Z,12.52
2018-03-02T00:57:08.665Z,10.00
2018-03-02T00:59:38.965Z,17.35
2018-03-02T01:02:08.675Z,12.85
2018-03-02T01:04:38.700Z,9.95
2018-03-02T01:07:08.027Z,12.90
2018-03-02T01:09:37.826Z,7.53
2018-03-02T01:12:08.019Z,16.30
2018-03-02T01:14:36.960Z,8.07
2018-03-02T01:17:06.042Z,15.23
2018-03-02T01:19:35.375Z,16.12
2018-03-02T01:22:05.237Z,15.95
2018-03-02T01:24:34.311Z,13.82
2018-03-02T01:27:03.179Z,14.75
2018-03-02T01:29:32.145Z,16.30
2018-03-02T01:32:01.667Z,15.48
2018-03-02T01:34:31.660Z,18.00
2018-03-02T01:37:00.966Z,16.60
2018-03-02T01:39:31.028Z,16.95
2018-03-02T01:42:02.043Z,16.42
2018-03-02T01:44:32.307Z,16.67
2018-03-02T01:47:01.586Z,15.07
2018-03-02T01:49:31.710Z,17.27
2018-03-02T01:52:01.150Z,17.48
2018-03-02T01:54:31.311Z,17.37
2018-03-02T01:57:01.550Z,16.12
2018-03-02T01:59:31.948Z,13.38
2018-03-02T02:02:02.145Z,15.55
2018-03-02T02:04:30.924Z,15.60
2018-03-02T02:07:00.225Z,16.27
2018-03-02T02:09:29.008Z,16.25
2018-03-02T02:11:58.159Z,14.18
2018-03-02T02:14:27.737Z,17.87
2018-03-02T02:16:56.939Z,13.35
2018-03-02T02:19:26.125Z,17.48
2018-03-02T02:21:55.797Z,17.10
2018-03-02T02:24:24.811Z,16.85
2018-03-02T02:26:53.493Z,16.98
2018-03-02T02:29:21.909Z,18.30
2018-03-02T02:31:50.689Z,17.40
2018-03-02T02:34:20.044Z,12.25
2018-03-02T02:36:48.348Z,13.90
2018-03-02T02:39:16.834Z,17.83
2018-03-02T02:41:46.325Z,18.12
2018-03-02T02:44:14.914Z,15.95
2018-03-02T02:46:43.797Z,16.48
2018-03-02T02:49:12.607Z,17.37
2018-03-02T02:51:41.063Z,17.98
2018-03-02T02:54:09.962Z,16.83
2018-03-02T02:56:39.401Z,17.15
2018-03-02T02:59:08.561Z,18.15
2018-03-02T03:01:37.437Z,19.20
2018-03-02T03:04:06.019Z,17.35
2018-03-02T03:06:35.952Z,16.52
2018-03-02T03:09:04.942Z,17.15
2018-03-02T03:11:34.356Z,16.80
2018-03-02T03:14:04.500Z,17.00
2018-03-02T03:16:33.405Z,17.65
2018-03-02T03:19:03.261Z,17.17
2018-03-02T03:21:31.838Z,14.93
2018-03-02T03:24:00.842Z,16.52
2018-03-02T03:26:29.204Z,16.20
2018-03-02T03:28:57.876Z,16.75
2018-03-02T03:31:26.479Z,18.02
2018-03-02T03:33:55.269Z,18.23
2018-03-02T03:36:24.565Z,17.50
2018-03-02T03:38:53.360Z,15.18
2018-03-02T03:41:22.462Z,18.62
2018-03-02T03:43:50.734Z,16.58
2018-03-02T03:46:19.623Z,17.50
2018-03-02T03:48:48.404Z,13.98
2018-03-02T03:51:16.987Z,19.40
2018-03-02T03:53:45.476Z,15.57
2018-03-02T03:56:14.400Z,17.62
2018-03-02T03:58:44.475Z,18.02
2018-03-02T04:01:13.392Z,17.52
2018-03-02T04:03:42.782Z,16.77
2018-03-02T04:06:11.666Z,18.17
2018-03-02T04:08:40.774Z,17.00
2018-03-02T04:11:10.462Z,16.50
2018-03-02T04:13:38.973Z,19.52
2018-03-02T04:16:07.747Z,18.80
2018-03-02T04:18:36.740Z,19.45
2018-03-02T04:21:05.226Z,19.92
2018-03-02T04:23:34.822Z,18.80
2018-03-02T04:26:03.668Z,18.67
2018-03-02T04:28:32.403Z,16.98
2018-03-02T04:31:01.204Z,18.30
2018-03-02T04:33:29.861Z,19.08
2018-03-02T04:35:58.365Z,17.33
2018-03-02T04:38:27.327Z,20.00
2018-03-02T04:40:55.944Z,14.13
2018-03-02T04:43:24.618Z,17.35
2018-03-02T04:45:53.439Z,20.48
2018-03-02T04:48:22.265Z,17.42
2018-03-02T04:50:50.760Z,19.25
2018-03-02T04:53:19.352Z,17.58
2018-03-02T04:55:48.337Z,18.67
2018-03-02T04:58:17.540Z,18.05
2018-03-02T05:00:46.133Z,19.98
2018-03-02T05:03:14.559Z,19.05
2018-03-02T05:05:43.488Z,19.20
2018-03-02T05:08:12.412Z,9.40
2018-03-02T05:10:41.900Z,21.42
2018-03-02T05:13:11.803Z,14.68
2018-03-02T05:15:40.580Z,19.10
2018-03-02T05:18:08.939Z,15.50
2018-03-02T05:20:37.527Z,17.58
2018-03-02T05:23:06.332Z,20.05
2018-03-02T05:25:34.628Z,21.08
2018-03-02T05:28:03.196Z,18.20
2018-03-02T05:30:32.945Z,18.80
2018-03-02T05:33:02.344Z,18.65
2018-03-02T05:35:30.902Z,20.55
2018-03-02T05:37:59.778Z,20.20
2018-03-02T05:40:28.271Z,20.62
2018-03-02T05:42:57.370Z,19.40
2018-03-02T05:45:26.315Z,18.23
2018-03-02T05:47:55.425Z,16.37
2018-03-02T05:50:24.267Z,20.23
2018-03-02T05:52:53.131Z,15.43
2018-03-02T05:55:22.982Z,18.27
2018-03-02T05:57:51.747Z,18.75
2018-03-02T06:00:21.769Z,19.55
2018-03-02T06:02:50.569Z,15.88
2018-03-02T06:05:19.130Z,15.98
2018-03-02T06:07:49.472Z,19.83
2018-03-02T06:10:18.876Z,19.95
2018-03-02T06:12:47.827Z,17.62
2018-03-02T06:15:17.010Z,19.62
2018-03-02T06:17:46.962Z,21.02
2018-03-02T06:20:17.300Z,20.27
2018-03-02T06:22:47.104Z,22.37
2018-03-02T06:25:16.808Z,19.75
2018-03-02T06:27:46.746Z,19.65
2018-03-02T06:30:15.998Z,21.02
2018-03-02T06:32:45.024Z,20.62
2018-03-02T06:35:15.947Z,20.55
2018-03-02T06:37:46.307Z,19.80
2018-03-02T06:40:15.679Z,19.25
2018-03-02T06:42:45.270Z,20.17
2018-03-02T06:45:14.488Z,20.85
2018-03-02T06:47:44.625Z,19.70
2018-03-02T06:50:13.580Z,20.83
2018-03-02T06:52:42.724Z,21.62
2018-03-02T06:55:12.074Z,18.45
2018-03-02T06:57:41.884Z,21.20
2018-03-02T07:00:11.507Z,21.02
2018-03-02T07:02:41.206Z,20.15
2018-03-02T07:05:10.614Z,21.17
2018-03-02T07:07:40.576Z,19.48
2018-03-02T07:10:10.774Z,20.52
2018-03-02T07:12:40.093Z,21.40
2018-03-02T07:15:09.631Z,19.55
2018-03-02T07:17:40.004Z,20.00
2018-03-02T07:20:09.314Z,20.80
2018-03-02T07:22:38.456Z,21.48
2018-03-02T07:25:08.337Z,15.00
2018-03-02T07:27:38.162Z,18.17
2018-03-02T07:30:08.255Z,21.60
2018-03-02T07:32:38.049Z,16.70
2018-03-02T07:35:08.617Z,18.77
2018-03-02T07:37:38.517Z,21.87
2018-03-02T07:40:08.250Z,23.70
2018-03-02T07:42:37.601Z,21.20
2018-03-02T07:45:07.927Z,20.45
2018-03-02T07:47:37.516Z,21.20
2018-03-02T07:50:07.655Z,21.58
2018-03-02T07:52:37.409Z,23.40
2018-03-02T07:55:07.296Z,21.98
2018-03-02T07:57:36.595Z,15.77
2018-03-02T08:00:05.964Z,19.25
2018-03-02T08:02:35.798Z,21.52
2018-03-02T08:05:05.394Z,20.62
2018-03-02T08:07:35.692Z,19.65
2018-03-02T08:10:06.756Z,22.30
2018-03-02T08:12:36.783Z,17.60
2018-03-02T08:15:05.942Z,21.87
2018-03-02T08:17:36.035Z,21.02
2018-03-02T08:20:05.893Z,22.20
2018-03-02T08:22:35.987Z,23.00
2018-03-02T08:25:05.342Z,16.20
2018-03-02T08:27:34.527Z,22.35
2018-03-02T08:30:03.987Z,18.83
2018-03-02T08:32:33.215Z,18.25
2018-03-02T08:35:02.208Z,22.20
2018-03-02T08:37:31.461Z,23.98
2018-03-02T08:40:00.737Z,21.77
2018-03-02T08:42:30.420Z,22.83
2018-03-02T08:44:59.504Z,21.37
2018-03-02T08:47:29.718Z,24.42
2018-03-02T08:49:59.986Z,21.77
2018-03-02T08:52:29.090Z,27.98
2018-03-02T08:54:59.582Z,22.37
2018-03-02T08:57:29.126Z,22.55
2018-03-02T08:59:58.193Z,20.02
2018-03-02T09:02:28.802Z,22.17
2018-03-02T09:04:58.900Z,21.95
2018-03-02T09:07:28.777Z,22.17
2018-03-02T09:09:57.944Z,18.65
2018-03-02T09:12:28.148Z,23.62
2018-03-02T09:14:57.981Z,22.65
2018-03-02T09:17:28.732Z,23.38
2018-03-02T09:19:58.237Z,20.60
2018-03-02T09:22:27.489Z,24.50
2018-03-02T09:24:57.548Z,22.15
2018-03-02T09:27:27.081Z,23.20
2018-03-02T09:29:56.385Z,20.20
2018-03-02T09:32:25.920Z,22.15
2018-03-02T09:34:55.934Z,14.38
2018-03-02T09:37:25.621Z,20.83
2018-03-02T09:39:55.611Z,17.15
2018-03-02T09:42:24.571Z,22.45
2018-03-02T09:44:53.623Z,24.17
2018-03-02T09:47:22.678Z,23.30
2018-03-02T09:49:51.687Z,23.05
2018-03-02T09:52:21.496Z,24.10
2018-03-02T09:54:50.632Z,23.80
2018-03-02T09:57:20.975Z,20.23
2018-03-02T09:59:51.020Z,23.83
2018-03-02T10:02:20.608Z,24.12
2018-03-02T10:04:51.186Z,23.23
2018-03-02T10:07:20.112Z,21.60
2018-03-02T10:09:49.905Z,24.80
2018-03-02T10:12:18.890Z,23.25
2018-03-02T10:14:48.121Z,25.30
2018-03-02T10:17:18.827Z,23.50
2018-03-02T10:19:48.107Z,24.23
2018-03-02T10:22:19.151Z,25.12
2018-03-02T10:24:48.231Z,23.73
2018-03-02T10:27:17.996Z,23.23
2018-03-02T10:29:47.873Z,18.27
2018-03-02T10:32:17.373Z,21.48
2018-03-02T10:34:47.192Z,21.42
2018-03-02T10:37:16.812Z,23.33
2018-03-02T10:39:46.601Z,22.98
2018-03-02T10:42:15.855Z,23.23
2018-03-02T10:44:44.819Z,15.25
2018-03-02T10:47:14.626Z,20.58
2018-03-02T10:49:44.278Z,14.60
2018-03-02T10:52:14.280Z,16.20
2018-03-02T10:54:43.389Z,15.15
2018-03-02T10:57:12.776Z,21.12
2018-03-02T10:59:42.535Z,23.83
2018-03-02T11:02:16.085Z,22.85
2018-03-02T11:04:47.032Z,14.95
2018-03-02T11:07:16.099Z,23.80
2018-03-02T11:09:45.879Z,13.32
2018-03-02T11:12:14.960Z,22.08
2018-03-02T11:14:44.604Z,21.90
2018-03-02T11:17:14.466Z,24.40
2018-03-02T11:19:43.958Z,22.05
2018-03-02T11:22:13.155Z,13.52
2018-03-02T11:24:44.433Z,13.38
2018-03-02T11:27:14.092Z,23.80
2018-03-02T11:29:43.386Z,22.75
2018-03-02T11:32:13.474Z,23.85
2018-03-02T11:34:42.723Z,20.35
2018-03-02T11:37:12.125Z,20.77
2018-03-02T11:39:42.040Z,24.35
2018-03-02T11:42:12.113Z,23.62
2018-03-02T11:44:42.315Z,22.85
2018-03-02T11:47:11.472Z,23.20
2018-03-02T11:49:40.437Z,22.95
2018-03-02T11:52:10.249Z,22.17
2018-03-02T11:54:40.123Z,19.33
2018-03-02T11:57:09.361Z,23.48
2018-03-02T11:59:39.750Z,22.87
2018-03-02T12:02:09.446Z,22.27
2018-03-02T12:04:39.611Z,17.23
2018-03-02T12:07:08.916Z,23.83
2018-03-02T12:09:38.635Z,22.35
2018-03-02T12:12:08.390Z,23.90
2018-03-02T12:14:37.489Z,21.55
2018-03-02T12:17:06.508Z,15.65
2018-03-02T12:19:35.498Z,24.65
2018-03-02T12:22:05.306Z,23.05
2018-03-02T12:24:35.189Z,22.62
2018-03-02T12:27:04.077Z,25.60
2018-03-02T12:29:33.336Z,23.52
2018-03-02T12:32:02.276Z,23.95
2018-03-02T12:34:31.333Z,19.77
2018-03-02T12:37:00.376Z,23.80
2018-03-02T12:39:29.370Z,21.23
2018-03-02T12:41:58.774Z,11.63
2018-03-02T12:44:28.237Z,22.90
2018-03-02T12:46:57.780Z,21.37
2018-03-02T12:49:27.890Z,22.27
2018-03-02T12:51:57.364Z,22.87
2018-03-02T12:54:27.940Z,22.80
2018-03-02T12:56:57.926Z,13.38
2018-03-02T12:59:27.837Z,21.20
2018-03-02T13:01:56.896Z,12.20
2018-03-02T13:04:27.786Z,24.12
2018-03-02T13:06:57.426Z,23.38
2018-03-02T13:09:28.231Z,25.55
2018-03-02T13:11:57.573Z,19.40
2018-03-02T13:14:27.770Z,21.65
2018-03-02T13:16:57.112Z,21.35
2018-03-02T13:19:26.533Z,20.37
2018-03-02T13:21:55.594Z,26.00
2018-03-02T13:24:24.995Z,28.30
2018-03-02T13:29:03.951Z,26.55
2018-03-02T13:31:32.896Z,25.85
2018-03-02T13:34:12.928Z,27.58
2018-03-02T13:36:41.788Z,25.33
2018-03-02T13:39:10.717Z,26.20
2018-03-02T13:41:50.375Z,25.67
2018-03-02T13:44:21.875Z,26.77
2018-03-02T13:46:50.956Z,28.48
2018-03-02T13:49:31.010Z,13.85
2018-03-02T13:52:01.120Z,27.30
2018-03-02T13:54:30.945Z,24.73
2018-03-02T13:58:05.180Z,25.70
2018-03-02T14:00:34.253Z,26.87
2018-03-02T14:03:13.774Z,28.02
2018-03-02T14:05:43.576Z,26.83
2018-03-02T14:08:14.217Z,26.10
2018-03-02T14:10:44.485Z,28.25
2018-03-02T14:13:13.433Z,28.60
2018-03-02T14:15:43.449Z,28.25
2018-03-02T14:18:13.338Z,26.62
2018-03-02T14:20:42.288Z,29.60
2018-03-02T14:23:11.445Z,27.35
2018-03-02T14:25:40.300Z,28.17
2018-03-02T14:28:10.120Z,27.65
2018-03-02T14:30:40.004Z,28.50
2018-03-02T14:33:10.083Z,28.60
2018-03-02T14:35:40.331Z,27.62
2018-03-02T14:38:09.042Z,27.52
2018-03-02T14:40:38.021Z,27.67
2018-03-02T14:43:07.632Z,28.02
2018-03-02T14:45:36.674Z,13.75
2018-03-02T14:48:06.548Z,28.85
2018-03-02T14:50:35.588Z,30.02
2018-03-02T14:53:04.698Z,29.25
2018-03-02T14:55:34.067Z,29.52
2018-03-02T14:58:03.502Z,23.77
2018-03-02T15:00:32.531Z,26.75
2018-03-02T15:03:02.563Z,23.92
2018-03-02T15:05:32.020Z,29.58
2018-03-02T15:08:01.415Z,24.00
2018-03-02T15:10:31.627Z,28.73
2018-03-02T15:13:01.075Z,22.85
2018-03-02T15:15:31.093Z,28.98
2018-03-02T15:18:00.317Z,11.45
2018-03-02T15:20:29.593Z,28.90
2018-03-02T15:22:58.808Z,27.13
2018-03-02T15:25:29.615Z,26.52
2018-03-02T15:27:58.879Z,24.52
2018-03-02T15:30:28.387Z,23.60
2018-03-02T15:32:57.539Z,12.88
2018-03-02T15:35:26.952Z,18.73
2018-03-02T15:37:56.669Z,18.80
2018-03-02T15:40:25.468Z,28.73
2018-03-02T15:42:54.497Z,29.73
2018-03-02T15:45:23.540Z,25.37
2018-03-02T15:47:52.836Z,26.67
2018-03-02T15:50:21.811Z,28.60
2018-03-02T15:52:51.800Z,30.48
2018-03-02T15:55:21.763Z,25.65
2018-03-02T15:57:51.778Z,19.30
2018-03-02T16:00:20.678Z,17.37
2018-03-02T16:02:49.735Z,29.67
2018-03-02T16:05:18.891Z,28.17
2018-03-02T16:07:48.103Z,21.23
2018-03-02T16:10:17.277Z,22.58
2018-03-02T16:12:46.079Z,13.77
2018-03-02T16:15:15.455Z,23.02
2018-03-02T16:17:45.196Z,12.45
2018-03-02T16:20:15.161Z,17.65
2018-03-02T16:22:44.284Z,13.98
2018-03-02T16:25:13.712Z,24.33
2018-03-02T16:27:43.795Z,22.98
2018-03-02T16:30:12.675Z,11.75
2018-03-02T16:32:41.473Z,14.80
2018-03-02T16:35:11.263Z,15.73
2018-03-02T16:37:40.032Z,17.27
2018-03-02T16:40:08.787Z,15.85
2018-03-02T16:42:38.013Z,16.52
2018-03-02T16:45:07.179Z,16.08
2018-03-02T16:47:36.388Z,17.02
2018-03-02T16:50:04.997Z,15.93
2018-03-02T16:52:33.875Z,13.98
2018-03-02T16:55:02.632Z,21.48
2018-03-02T16:57:31.940Z,18.70
2018-03-02T17:00:01.369Z,13.93
2018-03-02T17:02:30.382Z,12.10
2018-03-02T17:04:59.684Z,14.10
2018-03-02T17:07:28.413Z,19.27
2018-03-02T17:09:57.968Z,23.00
2018-03-02T17:12:26.727Z,19.37
2018-03-02T17:14:55.675Z,24.12
2018-03-02T17:17:24.858Z,16.25
2018-03-02T17:19:53.943Z,19.10
2018-03-02T17:22:23.159Z,18.65
2018-03-02T17:24:53.075Z,19.75
2018-03-02T17:27:22.666Z,15.30
2018-03-02T17:29:52.509Z,30.95
2018-03-02T17:32:22.588Z,28.92
2018-03-02T17:34:52.232Z,18.33
2018-03-02T17:37:22.184Z,18.65
2018-03-02T17:39:52.156Z,10.52
2018-03-02T17:42:21.896Z,13.13
2018-03-02T17:44:52.377Z,20.77
2018-03-02T17:47:22.087Z,12.85
2018-03-02T17:49:51.957Z,20.83
2018-03-02T17:52:21.382Z,21.20
2018-03-02T17:54:50.783Z,26.60
2018-03-02T17:57:19.651Z,20.20
2018-03-02T17:59:49.562Z,19.42
2018-03-02T18:02:18.302Z,20.35
2018-03-02T18:04:47.290Z,26.08
2018-03-02T18:07:16.414Z,27.45
2018-03-02T18:09:46.570Z,17.83
2018-03-02T18:12:15.442Z,19.08
2018-03-02T18:14:44.419Z,18.25
2018-03-02T18:24:22.455Z,20.98
2018-03-02T18:26:53.092Z,24.12
2018-03-02T18:29:22.902Z,21.50
2018-03-02T18:31:55.767Z,22.95
2018-03-02T18:57:54.030Z,36.78
2018-03-02T19:00:24.394Z,31.05
2018-03-02T19:02:55.373Z,28.67
2018-03-02T19:05:24.348Z,30.58
2018-03-02T19:07:54.219Z,29.35
2018-03-02T19:10:24.191Z,28.45
2018-03-02T19:12:53.754Z,26.80
2018-03-02T19:15:22.694Z,28.87
2018-03-02T19:17:52.685Z,30.00
2018-03-02T19:20:23.009Z,28.52
2018-03-02T19:22:56.836Z,30.27
2018-03-02T19:25:26.943Z,32.03
2018-03-02T19:27:57.087Z,32.88
2018-03-02T19:30:33.594Z,32.33
2018-03-02T19:33:02.678Z,33.47
2018-03-02T19:35:33.594Z,31.45
2018-03-02T19:38:03.700Z,21.75
2018-03-02T19:40:33.429Z,27.67
2018-03-02T19:43:03.228Z,27.10
2018-03-02T19:45:32.951Z,26.33
2018-03-02T19:48:01.915Z,31.17
2018-03-02T19:50:32.320Z,29.27
2018-03-02T19:53:01.033Z,30.48
2018-03-02T19:55:30.027Z,30.95
2018-03-02T19:58:01.231Z,30.20
2018-03-02T20:00:30.859Z,29.20
2018-03-02T20:03:01.057Z,28.65
2018-03-02T20:05:32.065Z,27.35
2018-03-02T20:08:02.258Z,29.48
2018-03-02T20:10:32.189Z,28.02
2018-03-02T20:13:00.851Z,30.27
2018-03-02T20:15:30.457Z,27.95
2018-03-02T20:18:00.040Z,29.00
2018-03-02T20:20:29.059Z,32.17
2018-03-02T20:22:57.733Z,29.63
2018-03-02T20:25:28.315Z,29.65
2018-03-02T20:27:57.141Z,31.65
2018-03-02T20:30:28.757Z,31.10
2018-03-02T20:32:57.615Z,30.17
2018-03-02T20:35:26.697Z,27.87
2018-03-02T20:37:55.794Z,29.90
2018-03-02T20:40:24.589Z,30.33
2018-03-02T20:42:55.315Z,29.63
2018-03-02T20:45:25.026Z,38.65
2018-03-02T20:47:53.916Z,34.22
2018-03-02T20:50:23.514Z,31.73
2018-03-02T20:52:53.781Z,38.63
2018-03-02T20:55:23.050Z,32.08
2018-03-02T20:57:52.141Z,31.00
2018-03-02T21:00:22.764Z,31.45
2018-03-02T21:02:52.372Z,31.42
2018-03-02T21:05:22.678Z,28.92
2018-03-02T21:07:51.460Z,29.73
2018-03-02T21:10:20.686Z,30.58
2018-03-02T21:12:50.178Z,31.75
2018-03-02T21:15:18.885Z,31.12
2018-03-02T21:17:47.866Z,32.63
2018-03-02T21:20:17.440Z,30.45
2018-03-02T21:22:47.003Z,30.45
2018-03-02T21:25:16.505Z,29.65
2018-03-02T21:27:45.746Z,28.92
2018-03-02T21:30:15.456Z,30.62
2018-03-02T21:32:45.186Z,30.37
2018-03-02T21:35:14.043Z,34.53
2018-03-02T21:37:42.899Z,30.55
2018-03-02T21:40:11.545Z,33.70
2018-03-02T21:42:40.457Z,30.12
2018-03-02T21:45:10.027Z,31.52
2018-03-02T21:47:39.648Z,29.23
2018-03-02T21:50:10.155Z,32.00
2018-03-02T21:52:39.197Z,30.83
2018-03-02T21:55:09.018Z,30.55
2018-03-02T21:57:37.779Z,18.77
2018-03-02T22:00:07.552Z,30.15
2018-03-02T22:02:36.578Z,29.70
2018-03-02T22:05:05.516Z,30.08
2018-03-02T22:07:34.134Z,37.40
2018-03-02T22:10:02.803Z,30.92
2018-03-02T22:12:32.536Z,32.65
2018-03-02T22:15:01.488Z,30.73
2018-03-02T22:17:30.364Z,33.65
2018-03-02T22:19:59.678Z,41.42
2018-03-02T22:22:28.751Z,33.60
2018-03-02T22:24:58.162Z,30.62
2018-03-02T22:27:27.663Z,29.70
2018-03-02T22:29:56.574Z,37.55
2018-03-02T22:32:25.473Z,33.25
2018-03-02T22:34:54.623Z,32.70
2018-03-02T22:37:23.956Z,30.15
2018-03-02T22:39:53.684Z,31.02
2018-03-02T22:42:22.532Z,30.90
2018-03-02T22:44:52.484Z,32.17
2018-03-02T22:47:21.982Z,29.52
2018-03-02T22:49:51.260Z,31.42
2018-03-02T22:52:20.133Z,30.08
2018-03-02T22:54:49.522Z,30.40
2018-03-02T22:57:19.636Z,31.08
2018-03-02T22:59:49.651Z,27.30
2018-03-02T23:02:20.557Z,24.27
2018-03-02T23:04:49.690Z,23.20
2018-03-02T23:07:19.819Z,23.92
2018-03-02T23:09:49.645Z,28.33
2018-03-02T23:12:18.670Z,26.85
2018-03-02T23:14:47.983Z,29.27
2018-03-02T23:17:17.784Z,34.00
2018-03-02T23:19:47.461Z,29.25
2018-03-02T23:22:16.633Z,23.70
2018-03-02T23:24:46.363Z,25.40
2018-03-02T23:27:16.647Z,25.88
2018-03-02T23:29:45.583Z,27.62
2018-03-02T23:32:15.111Z,25.33
2018-03-02T23:34:44.279Z,28.38
2018-03-02T23:37:14.028Z,26.12
2018-03-02T23:39:43.553Z,26.40
2018-03-02T23:42:12.500Z,24.77
2018-03-02T23:44:42.112Z,31.67
2018-03-02T23:47:11.416Z,29.33
2018-03-02T23:49:40.497Z,27.95
2018-03-02T23:52:10.022Z,29.63
2018-03-02T23:54:39.090Z,31.02
2018-03-02T23:57:09.896Z,28.85
2018-03-02T23:59:39.894Z,25.88
